Time;durP1;ratioP1;P1;durP2;ratioP2;P2;SDS_P1;SDS_P2;PMS_P1;PMS_P2;Temp;Humidity;BMP_temperature;BMP_pressure;BME280_temperature;BME280_humidity;BME280_pressure;Samples;Min_cycle;Max_cycle;Signal;HPM_P1;HPM_P2
2022/04/20 00:00:44;;;;;;;9.50;8.48;;;;;;;10.36;43.56;94787.41;5029383;28;20215;-62
2022/04/20 00:03:10;;;;;;;11.40;8.57;;;;;;;10.55;43.06;94785.09;5029506;28;20236;-64
2022/04/20 00:05:37;;;;;;;12.30;11.00;;;;;;;10.49;42.83;94792.16;5027858;28;20247;-59
2022/04/20 00:08:05;;;;;;;12.45;10.05;;;;;;;10.62;42.71;94794.28;5029596;28;20279;-63
2022/04/20 00:10:32;;;;;;;13.00;10.10;;;;;;;10.50;42.95;94778.03;5029408;28;20575;-62
2022/04/20 00:12:59;;;;;;;10.13;8.88;;;;;;;10.60;42.74;94780.66;5029384;28;20582;-63
2022/04/20 00:15:26;;;;;;;10.52;8.35;;;;;;;10.52;43.11;94775.94;5029742;28;20235;-61
2022/04/20 00:17:53;;;;;;;9.30;7.85;;;;;;;10.26;43.83;94782.13;5029319;28;20233;-65
2022/04/20 00:20:20;;;;;;;9.05;8.15;;;;;;;10.12;44.15;94781.81;5029014;28;20209;-61
2022/04/20 00:22:47;;;;;;;11.30;7.63;;;;;;;10.13;44.33;94795.66;5029583;28;20224;-61
2022/04/20 00:25:14;;;;;;;8.60;7.70;;;;;;;10.35;43.33;94787.63;5028084;28;20235;-50
2022/04/20 00:27:40;;;;;;;9.13;8.02;;;;;;;10.30;43.83;94788.41;5029531;28;20243;-61
2022/04/20 00:30:10;;;;;;;9.35;8.00;;;;;;;10.14;43.98;94789.41;5027794;28;20259;-64
2022/04/20 00:32:38;;;;;;;11.23;7.88;;;;;;;10.21;44.05;94787.34;5029234;28;20197;-55
2022/04/20 00:35:07;;;;;;;10.23;7.70;;;;;;;10.27;43.83;94782.91;5028829;28;20565;-50
2022/04/20 00:37:34;;;;;;;10.43;8.23;;;;;;;10.36;43.99;94774.31;5028607;28;20219;-61
2022/04/20 00:40:05;;;;;;;10.68;8.32;;;;;;;10.43;43.89;94777.47;5028043;28;20253;-54
2022/04/20 00:42:32;;;;;;;10.68;8.57;;;;;;;10.08;43.95;94785.13;5028281;28;20734;-58
2022/04/20 00:44:59;;;;;;;10.63;8.35;;;;;;;10.33;43.33;94777.41;5028364;28;20703;-58
2022/04/20 00:47:29;;;;;;;9.18;8.00;;;;;;;10.08;44.14;94765.00;5028490;28;20204;-56
2022/04/20 00:49:58;;;;;;;9.20;8.18;;;;;;;10.01;44.67;94790.63;5047531;28;20201;-63
2022/04/20 00:52:25;;;;;;;9.63;8.27;;;;;;;10.01;43.55;94776.72;5031460;28;20201;-64
2022/04/20 00:55:12;;;;;;;10.18;8.75;;;;;;;10.12;44.11;94781.00;5030426;28;20216;-58
2022/04/20 00:57:40;;;;;;;9.77;8.65;;;;;;;10.07;43.78;94783.56;5031895;28;20228;-54
2022/04/20 01:00:11;;;;;;;9.65;8.63;;;;;;;9.87;44.34;94770.38;5029197;28;20275;-62
2022/04/20 01:02:44;;;;;;;9.25;8.10;;;;;;;10.01;43.68;94779.34;5028076;28;20225;-63
2022/04/20 01:05:13;;;;;;;10.98;8.80;;;;;;;9.92;44.13;94771.19;5027551;28;20200;-53
2022/04/20 01:07:59;;;;;;;10.38;8.48;;;;;;;9.85;44.30;94767.22;5029081;28;20291;-55
2022/04/20 01:10:51;;;;;;;11.13;9.02;;;;;;;9.83;44.48;94777.16;5028702;28;20970;-58
2022/04/20 01:13:27;;;;;;;10.70;9.10;;;;;;;9.85;44.78;94777.69;5028975;28;20283;-51
2022/04/20 01:16:17;;;;;;;9.50;8.30;;;;;;;9.86;44.56;94776.63;5028243;28;20251;-56
2022/04/20 01:19:03;;;;;;;13.82;10.50;;;;;;;9.75;44.81;94769.78;5031747;28;20263;-59
2022/04/20 01:21:41;;;;;;;16.13;11.40;;;;;;;9.66;44.71;94766.84;5047676;28;20251;-54
2022/04/20 01:24:11;;;;;;;13.77;10.25;;;;;;;9.54;44.68;94768.09;5031568;28;20205;-58
2022/04/20 01:27:02;;;;;;;15.05;11.52;;;;;;;8.13;48.50;94793.59;5031489;28;20304;-65
2022/04/20 01:29:48;;;;;;;16.48;11.60;;;;;;;8.36;48.45;94787.38;5032340;28;20200;-50
2022/04/20 01:32:30;;;;;;;15.25;11.68;;;;;;;9.10;46.19;94799.63;5032521;28;20201;-60
2022/04/20 01:35:09;;;;;;;21.05;13.93;;;;;;;9.26;46.09;94791.91;5031031;28;20208;-64
2022/04/20 01:37:37;;;;;;;19.17;14.98;;;;;;;9.59;44.61;94791.66;5030907;28;20590;-58
2022/04/20 01:40:05;;;;;;;17.92;12.68;;;;;;;9.62;44.88;94785.91;5031002;28;20201;-55
2022/04/20 01:42:32;;;;;;;17.58;12.95;;;;;;;9.84;44.31;94789.19;5031026;28;20217;-63
2022/04/20 01:45:03;;;;;;;16.67;13.25;;;;;;;9.86;44.39;94781.88;5031024;28;20216;-59
2022/04/20 01:47:42;;;;;;;15.63;12.27;;;;;;;9.80;44.41;94773.22;5031056;28;20211;-56
2022/04/20 01:50:21;;;;;;;19.48;12.05;;;;;;;9.59;43.98;94786.41;5047552;28;20247;-61
2022/04/20 01:53:04;;;;;;;14.38;11.50;;;;;;;9.28;45.15;94771.53;5030877;28;20209;-56
2022/04/20 01:55:53;;;;;;;17.27;11.20;;;;;;;9.43;44.63;94793.38;5017278;28;20205;-67
2022/04/20 01:58:40;;;;;;;15.05;12.38;;;;;;;9.73;44.01;94785.72;5025448;28;20314;-63
2022/04/20 02:04:14;;;;;;;15.35;11.40;;;;;;;9.69;44.35;94794.34;5022018;28;20228;-61
2022/04/20 02:06:41;;;;;;;14.18;10.75;;;;;;;9.81;43.90;94792.31;5030347;28;20251;-55
2022/04/20 02:09:15;;;;;;;14.00;10.90;;;;;;;9.64;44.61;94810.00;5032440;28;20207;-61
2022/04/20 02:11:58;;;;;;;15.75;11.27;;;;;;;9.38;45.20;94805.63;5030701;28;20208;-71
2022/04/20 02:14:50;;;;;;;14.63;11.27;;;;;;;9.40;44.96;94791.25;5029610;28;20208;-61
2022/04/20 02:17:52;;;;;;;15.05;11.80;;;;;;;9.60;44.81;94804.47;5049494;28;20230;-64
2022/04/20 02:20:28;;;;;;;13.48;10.52;;;;;;;9.69;43.64;94786.50;5029552;28;20599;-63
2022/04/20 02:22:55;;;;;;;14.57;11.23;;;;;;;9.53;44.68;94779.56;5030512;28;20328;-61
2022/04/20 02:25:23;;;;;;;16.58;11.70;;;;;;;9.39;44.77;94781.03;5030166;28;20231;-59
2022/04/20 02:27:50;;;;;;;16.27;12.00;;;;;;;9.20;44.59;94784.03;5030007;28;20209;-54
2022/04/20 02:30:17;;;;;;;16.10;12.20;;;;;;;9.41;44.28;94778.97;5031081;28;20209;-59
2022/04/20 02:32:44;;;;;;;14.55;11.95;;;;;;;9.31;44.81;94769.22;5013613;28;20201;-62
2022/04/20 02:35:11;;;;;;;16.90;12.85;;;;;;;9.09;44.96;94785.00;5029921;28;20193;-61
2022/04/20 02:37:38;;;;;;;18.80;12.98;;;;;;;8.81;45.69;94785.22;5029901;28;20209;-64
2022/04/20 02:40:05;;;;;;;15.70;12.93;;;;;;;9.07;44.93;94779.22;5029940;28;20197;-67
2022/04/20 02:42:32;;;;;;;16.75;13.20;;;;;;;9.12;44.69;94779.25;5031358;28;20343;-64
2022/04/20 02:44:59;;;;;;;17.52;12.18;;;;;;;9.24;44.79;94784.31;5030983;28;20186;-67
2022/04/20 02:47:26;;;;;;;18.20;13.38;;;;;;;9.09;44.95;94771.91;5030355;28;20201;-61
2022/04/20 02:49:53;;;;;;;18.50;13.70;;;;;;;9.27;44.20;94764.75;5030799;28;20197;-57
2022/04/20 02:52:22;;;;;;;18.05;14.20;;;;;;;9.31;43.85;94776.25;5029894;28;20205;-60
2022/04/20 02:54:49;;;;;;;20.08;14.00;;;;;;;9.11;44.59;94782.13;5029742;28;20224;-59
2022/04/20 02:57:16;;;;;;;18.58;13.85;;;;;;;8.93;45.00;94778.06;5029710;28;20227;-51
2022/04/20 02:59:46;;;;;;;19.15;14.07;;;;;;;9.26;44.67;94791.91;5029547;28;20212;-66
2022/04/20 03:02:13;;;;;;;17.85;13.75;;;;;;;9.32;44.39;94793.53;5029233;28;20228;-56
2022/04/20 03:04:40;;;;;;;17.75;13.40;;;;;;;9.02;44.73;94800.09;5028967;28;20208;-66
2022/04/20 03:07:09;;;;;;;17.48;13.75;;;;;;;9.12;44.98;94797.53;5029830;28;20201;-57
2022/04/20 03:09:54;;;;;;;17.10;13.38;;;;;;;8.82;45.72;94797.28;5029518;28;20286;-56
2022/04/20 03:12:25;;;;;;;18.63;14.35;;;;;;;8.76;45.09;94802.69;5029712;28;20672;-51
2022/04/20 03:14:54;;;;;;;20.83;13.77;;;;;;;9.03;44.68;94799.03;5029520;28;20267;-65
2022/04/20 03:17:22;;;;;;;17.75;13.55;;;;;;;8.87;45.20;94799.94;5029499;28;20240;-50
2022/04/20 03:19:51;;;;;;;17.60;13.20;;;;;;;8.83;44.90;94798.06;5028908;28;20213;-61
2022/04/20 03:22:18;;;;;;;18.02;13.43;;;;;;;8.79;45.29;94805.63;5029336;28;20213;-61
2022/04/20 03:24:45;;;;;;;18.50;13.18;;;;;;;8.97;44.42;94794.81;5029211;28;20217;-62
2022/04/20 03:27:15;;;;;;;18.20;12.45;;;;;;;9.14;44.76;94808.53;5030765;28;20672;-61
2022/04/20 03:29:54;;;;;;;16.73;13.00;;;;;;;8.71;45.13;94816.50;5030566;28;20212;-54
2022/04/20 03:32:21;;;;;;;20.17;13.43;;;;;;;8.84;44.71;94800.44;5028920;28;20197;-59
2022/04/20 03:34:48;;;;;;;18.48;13.52;;;;;;;8.93;44.96;94793.72;5030128;28;20209;-66
2022/04/20 03:37:16;;;;;;;18.73;13.95;;;;;;;8.97;45.22;94784.38;5030301;28;20190;-58
2022/04/20 03:39:44;;;;;;;18.13;13.18;;;;;;;8.95;44.76;94788.25;5030073;28;20201;-58
2022/04/20 03:42:12;;;;;;;18.13;13.45;;;;;;;8.93;44.79;94782.47;5029410;28;20232;-59
2022/04/20 03:44:39;;;;;;;20.50;13.98;;;;;;;8.96;44.96;94792.44;5029933;28;20189;-58
2022/04/20 03:47:07;;;;;;;18.90;13.13;;;;;;;9.08;44.28;94791.25;5028776;28;20204;-61
2022/04/20 03:49:34;;;;;;;18.20;13.70;;;;;;;9.24;44.60;94784.31;5029912;28;20204;-55
2022/04/20 03:52:07;;;;;;;18.42;13.27;;;;;;;9.12;44.42;94787.09;5028593;28;20263;-55
2022/04/20 03:54:37;;;;;;;22.10;14.55;;;;;;;9.12;43.80;94786.31;5028687;28;20201;-58
2022/04/20 03:57:07;;;;;;;20.13;14.75;;;;;;;8.98;44.33;94785.13;5028776;28;20244;-59
2022/04/20 03:59:45;;;;;;;23.63;15.85;;;;;;;8.81;44.53;94784.47;5028378;28;20267;-61
2022/04/20 04:02:14;;;;;;;21.40;16.48;;;;;;;8.66;44.57;94787.72;5030114;28;20225;-61
2022/04/20 04:04:56;;;;;;;24.23;17.17;;;;;;;8.80;44.48;94788.91;5027183;28;20212;-62
2022/04/20 04:07:41;;;;;;;26.42;17.73;;;;;;;8.21;45.26;94789.78;5027751;28;20225;-56
2022/04/20 04:10:12;;;;;;;27.20;19.27;;;;;;;8.58;44.61;94780.31;5044733;28;20205;-57
2022/04/20 04:12:39;;;;;;;24.45;17.77;;;;;;;8.56;44.39;94764.09;5028415;28;20201;-57
2022/04/20 04:15:07;;;;;;;29.50;18.35;;;;;;;8.76;44.30;94772.13;5030091;28;20196;-61
2022/04/20 04:17:35;;;;;;;28.00;18.17;;;;;;;8.85;43.99;94769.88;5029902;28;20236;-57
2022/04/20 04:20:04;;;;;;;21.10;16.13;;;;;;;8.39;44.80;94766.00;5041243;28;20231;-59
2022/04/20 04:22:32;;;;;;;23.88;17.40;;;;;;;8.35;45.56;94751.06;5037003;28;20736;-57
2022/04/20 04:25:23;;;;;;;26.15;15.82;;;;;;;8.53;44.96;94767.19;5047115;28;20196;-62
2022/04/20 04:27:51;;;;;;;30.08;17.25;;;;;;;8.46;45.26;94764.00;5064775;28;20223;-62
2022/04/20 04:30:19;;;;;;;30.30;17.40;;;;;;;8.81;45.22;94761.72;5047487;28;20207;-56
2022/04/20 04:33:04;;;;;;;27.90;16.83;;;;;;;8.95;44.51;94764.72;5047956;28;20196;-60
2022/04/20 04:35:34;;;;;;;27.60;18.08;;;;;;;9.25;45.10;94754.53;5042535;28;20250;-59
2022/04/20 04:38:03;;;;;;;26.15;16.33;;;;;;;9.25;44.75;94748.53;5028095;28;20233;-56
2022/04/20 04:40:32;;;;;;;25.52;17.30;;;;;;;9.13;44.93;94723.34;5027696;28;20228;-65
2022/04/20 04:43:02;;;;;;;29.55;17.55;;;;;;;9.32;44.77;94738.63;5027643;28;20224;-58
2022/04/20 04:48:37;;;;;;;21.25;15.50;;;;;;;9.58;43.61;94758.69;5027869;28;20205;-60
2022/04/20 04:51:10;;;;;;;42.88;30.58;;;;;;;8.69;46.25;94771.53;5027693;28;20295;-60
2022/04/20 04:53:39;;;;;;;82.15;54.58;;;;;;;8.85;46.48;94764.66;5026531;28;20199;-62
2022/04/20 04:56:13;;;;;;;28.48;18.73;;;;;;;9.25;45.00;94772.06;5027705;28;20204;-58
2022/04/20 04:58:45;;;;;;;27.00;17.27;;;;;;;8.56;47.16;94784.97;5027930;28;20217;-59
2022/04/20 05:01:13;;;;;;;29.30;17.90;;;;;;;8.79;46.03;94770.84;5027567;28;20211;-60
2022/04/20 05:03:40;;;;;;;24.40;17.92;;;;;;;8.53;46.96;94788.09;5027569;28;20282;-59
2022/04/20 05:06:10;;;;;;;23.25;17.45;;;;;;;8.79;46.92;94792.56;5027596;28;20202;-61
2022/04/20 05:08:59;;;;;;;19.13;15.48;;;;;;;8.88;46.53;94785.84;5027755;28;20205;-56
2022/04/20 05:11:27;;;;;;;21.25;15.48;;;;;;;9.10;45.99;94783.94;5027564;28;20244;-58
2022/04/20 05:13:54;;;;;;;18.67;15.20;;;;;;;9.23;45.39;94780.91;5027675;28;20596;-60
2022/04/20 05:16:23;;;;;;;21.00;15.88;;;;;;;9.48;45.53;94779.53;5027196;28;20214;-67
2022/04/20 05:18:54;;;;;;;42.47;30.42;;;;;;;9.73;45.17;94775.25;5028264;28;20255;-62
2022/04/20 05:21:23;;;;;;;23.50;17.58;;;;;;;9.60;45.45;94785.41;5027447;28;20570;-58
2022/04/20 05:23:50;;;;;;;19.48;15.82;;;;;;;9.43;46.07;94787.34;5026970;28;20209;-54
2022/04/20 05:26:17;;;;;;;24.38;15.55;;;;;;;9.61;45.48;94789.56;5027246;28;20219;-60
2022/04/20 05:28:45;;;;;;;21.40;15.77;;;;;;;9.55;46.14;94796.59;5027482;28;20201;-58
2022/04/20 05:31:14;;;;;;;21.77;15.60;;;;;;;9.12;46.31;94802.78;5029087;28;20878;-58
2022/04/20 05:33:43;;;;;;;28.75;17.42;;;;;;;9.67;45.53;94805.03;5026705;28;20779;-58
2022/04/20 05:36:12;;;;;;;22.33;15.95;;;;;;;9.86;45.09;94793.13;5027035;28;20224;-61
2022/04/20 05:41:40;;;;;;;22.60;14.63;;;;;;;9.14;46.63;94805.16;5019455;28;20292;-59
2022/04/20 05:44:13;;;;;;;18.77;14.43;;;;;;;8.26;48.38;94787.25;5027215;28;20252;-58
2022/04/20 05:46:42;;;;;;;28.15;15.05;;;;;;;8.91;47.95;94800.22;5027036;28;20233;-59
2022/04/20 05:49:13;;;;;;;19.48;15.13;;;;;;;9.81;45.44;94787.09;5027408;28;20205;-53
2022/04/20 05:51:40;;;;;;;19.70;14.70;;;;;;;10.00;45.25;94794.25;5026860;28;20270;-54
2022/04/20 05:54:07;;;;;;;23.55;15.25;;;;;;;10.05;45.59;94798.75;5027059;28;20287;-54
2022/04/20 05:56:37;;;;;;;21.40;13.93;;;;;;;9.83;46.05;94808.56;5027142;28;20217;-56
2022/04/20 05:59:05;;;;;;;20.42;14.48;;;;;;;10.08;45.70;94811.31;5027151;28;20212;-58
2022/04/20 06:01:34;;;;;;;22.27;15.30;;;;;;;10.07;45.45;94815.00;5027094;28;20690;-58
2022/04/20 06:04:17;;;;;;;16.58;13.52;;;;;;;9.70;46.01;94824.69;5028459;28;20288;-58
2022/04/20 06:07:03;;;;;;;18.38;13.52;;;;;;;9.92;45.53;94807.03;5032228;28;20280;-59
2022/04/20 06:09:41;;;;;;;20.33;15.45;;;;;;;9.60;47.22;94824.63;5030306;28;20216;-60
2022/04/20 06:12:11;;;;;;;23.77;16.65;;;;;;;9.96;45.51;94829.06;5032482;28;20212;-58
2022/04/20 06:15:17;;;;;;;21.13;15.10;;;;;;;10.24;45.30;94822.72;5009522;28;20221;-60
2022/04/20 06:17:47;;;;;;;19.13;15.13;;;;;;;10.04;45.12;94805.00;5009959;28;20225;-60
2022/04/20 06:20:14;;;;;;;23.60;15.88;;;;;;;9.85;46.34;94811.72;5009933;28;20209;-59
2022/04/20 06:22:57;;;;;;;23.50;16.52;;;;;;;10.09;46.10;94807.72;5030553;28;20275;-56
2022/04/20 06:25:42;;;;;;;20.85;16.60;;;;;;;10.00;45.91;94815.19;5030161;28;20660;-52
2022/04/20 06:28:26;;;;;;;21.13;16.75;;;;;;;10.40;45.18;94804.16;5030790;28;20201;-55
2022/04/20 06:31:20;;;;;;;19.35;14.88;;;;;;;10.51;45.01;94800.53;5030480;28;20202;-63
2022/04/20 06:34:05;;;;;;;18.50;14.63;;;;;;;10.71;44.92;94800.59;5031975;28;20239;-55
2022/04/20 06:36:41;;;;;;;19.58;15.75;;;;;;;10.66;45.33;94795.34;5030657;28;20676;-57
2022/04/20 06:39:32;;;;;;;24.40;17.23;;;;;;;10.74;45.13;94799.31;5030278;28;20212;-61
2022/04/20 06:42:18;;;;;;;26.15;16.45;;;;;;;10.62;45.82;94796.91;5031644;28;20306;-57
2022/04/20 06:45:03;;;;;;;28.83;17.60;;;;;;;10.75;45.52;94796.44;5029548;28;20300;-62
2022/04/20 06:48:00;;;;;;;22.83;17.65;;;;;;;10.41;46.26;94795.28;5015933;28;20235;-58
2022/04/20 06:50:43;;;;;;;24.58;18.23;;;;;;;10.46;46.69;94803.16;5029653;28;20245;-57
2022/04/20 06:59:04;;;;;;;24.27;18.98;;;;;;;10.36;47.00;94797.88;5029472;28;20644;-56
2022/04/20 07:01:58;;;;;;;25.60;18.08;;;;;;;10.70;47.35;94783.31;5030205;28;20216;-58
2022/04/20 07:05:05;;;;;;;26.35;19.02;;;;;;;11.15;46.12;94795.72;5015122;28;20211;-53
2022/04/20 07:07:41;;;;;;;23.98;18.17;;;;;;;10.61;47.34;94784.88;5029817;28;20201;-55
2022/04/20 07:10:42;;;;;;;23.50;18.38;;;;;;;10.88;47.55;94774.97;5029272;28;20205;-59
2022/04/20 07:13:13;;;;;;;26.13;18.38;;;;;;;10.63;47.01;94777.53;5029433;28;20692;-60
2022/04/20 07:15:40;;;;;;;22.88;18.30;;;;;;;10.79;47.58;94792.25;5028066;28;20198;-58
2022/04/20 07:18:08;;;;;;;25.73;18.75;;;;;;;10.55;46.60;94806.03;5029164;28;20643;-60
2022/04/20 07:20:53;;;;;;;27.00;19.55;;;;;;;10.45;47.02;94812.06;5030284;28;20195;-57
2022/04/20 07:23:59;;;;;;;24.15;17.92;;;;;;;10.72;46.53;94815.28;5008306;28;20250;-55
2022/04/20 07:26:51;;;;;;;26.45;18.63;;;;;;;10.58;47.84;94806.34;5008383;28;20254;-58
2022/04/20 07:29:25;;;;;;;24.48;19.67;;;;;;;10.46;48.77;94808.38;5006758;28;20645;-55
2022/04/20 07:32:08;;;;;;;24.83;20.00;;;;;;;10.45;48.13;94806.81;5029191;28;20200;-57
2022/04/20 07:34:44;;;;;;;25.90;20.33;;;;;;;10.73;47.46;94777.56;5030162;28;20720;-52
2022/04/20 07:37:29;;;;;;;25.77;19.50;;;;;;;11.14;47.36;94800.19;5031123;28;20201;-57
2022/04/20 07:39:56;;;;;;;27.58;21.02;;;;;;;11.33;46.69;94799.69;5029812;28;20197;-57
2022/04/20 07:42:58;;;;;;;28.23;23.05;;;;;;;11.50;46.45;94797.56;5027514;28;20235;-58
2022/04/20 07:45:37;;;;;;;30.20;23.55;;;;;;;11.47;46.53;94795.47;5029627;28;20219;-57
2022/04/20 07:48:27;;;;;;;32.58;24.73;;;;;;;11.41;46.67;94791.25;5024783;28;20302;-59
2022/04/20 07:51:17;;;;;;;31.88;25.17;;;;;;;11.55;46.21;94794.97;5029930;28;20351;-55
2022/04/20 07:53:57;;;;;;;32.95;24.58;;;;;;;11.71;46.56;94804.41;5028325;28;20205;-59
2022/04/20 07:57:02;;;;;;;38.60;25.85;;;;;;;11.70;45.97;94798.38;5029684;28;20695;-56
2022/04/20 07:59:46;;;;;;;39.80;28.30;;;;;;;11.63;46.70;94797.84;5028120;28;20219;-57
2022/04/20 08:02:38;;;;;;;38.08;28.02;;;;;;;11.62;46.67;94800.72;5029675;28;20280;-58
2022/04/20 08:05:16;;;;;;;38.38;28.13;;;;;;;11.52;46.73;94790.22;5028031;28;20204;-57
2022/04/20 08:07:44;;;;;;;39.75;28.55;;;;;;;11.35;47.46;94789.72;5028604;28;20213;-56
2022/04/20 08:10:12;;;;;;;35.20;27.27;;;;;;;11.46;47.25;94789.44;5029194;28;20228;-59
2022/04/20 08:12:42;;;;;;;37.83;27.33;;;;;;;11.61;46.88;94773.69;5028348;28;20448;-58
2022/04/20 08:15:15;;;;;;;37.93;27.83;;;;;;;11.52;46.80;94775.25;5027893;28;20291;-56
2022/04/20 08:17:47;;;;;;;28.67;22.80;;;;;;;11.36;47.19;94773.72;5028023;28;21029;-55
2022/04/20 08:20:44;;;;;;;25.70;20.95;;;;;;;11.61;46.85;94776.31;4992276;28;20460;-57
2022/04/20 08:23:12;;;;;;;28.90;21.47;;;;;;;11.75;46.62;94774.75;5027903;28;20229;-58
2022/04/20 08:25:41;;;;;;;28.90;22.70;;;;;;;11.76;46.69;94771.06;5029330;28;20452;-53
2022/04/20 08:28:10;;;;;;;27.87;21.00;;;;;;;11.80;46.79;94768.72;5029470;28;20452;-59
2022/04/20 08:30:38;;;;;;;23.53;18.87;;;;;;;11.87;46.42;94761.34;5028886;28;20990;-57
2022/04/20 08:33:07;;;;;;;24.67;18.83;;;;;;;11.49;47.29;94751.41;5029492;28;20814;-59
2022/04/20 08:35:35;;;;;;;20.40;17.57;;;;;;;11.74;45.92;94751.38;5029435;28;20458;-58
2022/04/20 08:38:02;;;;;;;20.25;17.10;;;;;;;11.64;46.94;94764.50;5029552;28;20443;-60
2022/04/20 08:40:30;;;;;;;23.57;18.00;;;;;;;10.72;49.58;94765.50;5028909;28;20189;-52
2022/04/20 08:43:05;;;;;;;22.10;18.00;;;;;;;11.29;48.54;94754.03;5029437;28;20435;-58
2022/04/20 08:45:37;;;;;;;22.90;18.17;;;;;;;11.02;48.92;94736.69;5028439;28;20566;-55
2022/04/20 08:48:06;;;;;;;22.10;17.63;;;;;;;11.36;47.92;94718.63;5029190;28;20440;-56
2022/04/20 08:50:33;;;;;;;22.50;18.05;;;;;;;11.77;47.58;94740.38;5028897;28;20205;-54
2022/04/20 08:53:01;;;;;;;21.17;18.00;;;;;;;12.01;47.49;94730.84;5028699;28;20629;-53
2022/04/20 08:55:28;;;;;;;24.33;19.27;;;;;;;11.99;47.23;94714.56;5028599;28;21126;-52
2022/04/20 08:57:55;;;;;;;24.50;20.03;;;;;;;11.84;46.88;94725.88;5029399;28;20462;-55
2022/04/20 09:00:26;;;;;;;27.00;19.60;;;;;;;11.61;48.22;94720.41;5028977;28;20831;-55
2022/04/20 09:02:58;;;;;;;27.13;20.33;;;;;;;11.50;48.69;94721.47;5029156;28;20200;-59
2022/04/20 09:05:30;;;;;;;24.03;19.67;;;;;;;11.53;48.16;94713.09;5028564;28;20208;-55
2022/04/20 09:07:57;;;;;;;24.20;19.67;;;;;;;11.41;48.54;94729.09;5029060;28;20451;-60
2022/04/20 09:10:25;;;;;;;27.23;21.92;;;;;;;11.03;48.94;94722.56;5027236;28;20449;-52
2022/04/20 09:13:10;;;;;;;30.63;22.90;;;;;;;11.47;48.96;94708.88;5029280;28;20209;-53
2022/04/20 09:15:39;;;;;;;32.13;22.43;;;;;;;11.13;49.06;94717.31;5028820;28;20574;-59
2022/04/20 09:18:10;;;;;;;26.80;21.17;;;;;;;11.21;49.00;94714.16;5028880;28;20889;-60
2022/04/20 09:20:38;;;;;;;29.48;22.90;;;;;;;11.82;48.30;94696.53;5028087;28;20667;-58
2022/04/20 09:23:13;;;;;;;31.63;24.98;;;;;;;12.34;47.52;94692.59;5028958;28;20217;-56
2022/04/20 09:25:49;;;;;;;32.83;24.97;;;;;;;12.04;48.64;94689.06;5028899;28;20219;-57
2022/04/20 09:28:17;;;;;;;32.23;23.27;;;;;;;12.45;47.83;94679.16;5029387;28;20435;-57
2022/04/20 09:30:44;;;;;;;36.60;24.33;;;;;;;12.62;47.20;94661.19;5028505;28;20439;-53
2022/04/20 09:33:15;;;;;;;37.57;28.53;;;;;;;12.95;47.12;94672.78;5029296;28;20444;-54
2022/04/20 09:35:53;;;;;;;38.10;27.10;;;;;;;12.81;47.64;94675.25;5028629;28;20993;-58
2022/04/20 09:38:24;;;;;;;31.07;24.40;;;;;;;12.62;48.06;94684.84;5028165;28;20888;-55
2022/04/20 09:41:11;;;;;;;42.07;29.67;;;;;;;12.75;47.07;94683.44;5031012;28;20440;-56
2022/04/20 09:43:38;;;;;;;27.87;22.03;;;;;;;12.30;47.92;94671.34;5032373;28;20558;-57
2022/04/20 09:49:24;;;;;;;25.57;18.00;;;;;;;11.63;49.47;94663.19;5032289;28;20440;-58
2022/04/20 09:51:51;;;;;;;25.08;20.98;;;;;;;12.19;48.41;94654.88;5027992;28;20451;-56
2022/04/20 09:54:26;;;;;;;24.40;19.05;;;;;;;12.11;49.39;94662.53;5032267;28;20189;-55
2022/04/20 09:57:10;;;;;;;24.67;19.90;;;;;;;12.33;49.08;94655.06;5032491;28;20624;-57
2022/04/20 10:00:12;;;;;;;20.30;17.27;;;;;;;12.06;49.79;94655.44;5031645;28;20243;-54
2022/04/20 10:02:51;;;;;;;12.10;10.57;;;;;;;11.61;50.12;94642.47;5032147;28;20525;-59
2022/04/20 10:05:20;;;;;;;14.23;11.57;;;;;;;12.20;48.82;94655.66;5031679;28;20487;-54
2022/04/20 10:07:56;;;;;;;10.23;9.13;;;;;;;11.60;49.27;94667.16;5032167;28;20439;-61
2022/04/20 10:10:23;;;;;;;10.87;9.77;;;;;;;11.91;48.91;94652.13;5031795;28;20523;-54
2022/04/20 10:12:54;;;;;;;11.30;9.95;;;;;;;12.55;48.28;94652.03;5032000;28;20448;-56
2022/04/20 10:18:16;;;;;;;12.50;11.20;;;;;;;12.81;48.41;94635.81;5031548;28;20224;-53
2022/04/20 10:20:46;;;;;;;12.90;10.80;;;;;;;12.27;48.98;94619.38;5031132;28;20986;-54
2022/04/20 10:23:19;;;;;;;16.80;12.50;;;;;;;12.18;49.17;94642.00;5030560;28;20867;-58
2022/04/20 10:25:52;;;;;;;15.33;12.40;;;;;;;12.62;47.80;94652.50;5031268;28;20448;-58
2022/04/20 10:28:27;;;;;;;12.53;11.03;;;;;;;12.48;48.26;94647.06;5031520;28;20454;-59
2022/04/20 10:31:14;;;;;;;14.02;11.07;;;;;;;12.83;48.51;94622.38;5031403;28;20516;-57
2022/04/20 10:33:43;;;;;;;11.93;9.83;;;;;;;12.85;48.92;94626.31;5030051;28;20197;-57
2022/04/20 10:36:39;;;;;;;10.33;9.17;;;;;;;12.94;47.97;94616.75;5027984;28;20551;-50
2022/04/20 10:39:20;;;;;;;8.83;7.93;;;;;;;13.10;47.44;94607.69;5029977;28;20440;-52
2022/04/20 10:42:16;;;;;;;10.40;8.50;;;;;;;13.65;46.89;94602.94;5031108;28;20561;-57
2022/04/20 10:44:58;;;;;;;9.90;8.90;;;;;;;13.53;46.98;94599.91;5030953;28;21013;-56
2022/04/20 10:47:28;;;;;;;9.63;8.73;;;;;;;13.54;47.29;94598.84;5031891;28;20525;-52
2022/04/20 10:50:17;;;;;;;9.77;8.23;;;;;;;13.51;46.97;94594.13;5031059;28;20432;-55
2022/04/20 10:53:02;;;;;;;8.17;7.37;;;;;;;12.59;47.31;94601.25;5031528;28;20444;-54
2022/04/20 10:55:31;;;;;;;9.27;8.33;;;;;;;13.14;47.35;94592.94;5029092;28;20852;-56
2022/04/20 10:58:16;;;;;;;9.90;8.47;;;;;;;13.57;47.01;94585.13;5031309;28;20432;-56
2022/04/20 11:00:44;;;;;;;9.50;8.50;;;;;;;13.19;47.57;94595.50;5030180;28;20443;-58
2022/04/20 11:03:12;;;;;;;8.43;7.63;;;;;;;13.04;47.64;94577.28;5030930;28;20978;-58
2022/04/20 11:05:57;;;;;;;10.23;8.77;;;;;;;13.00;47.66;94592.00;5030446;28;20530;-57
2022/04/20 11:08:24;;;;;;;11.03;9.10;;;;;;;13.04;48.28;94592.25;5030611;28;21012;-56
2022/04/20 11:18:38;;;;;;;9.30;8.37;;;;;;;12.65;48.66;94604.63;5030574;28;20460;-51
2022/04/20 11:19:48;;;;;;;11.10;10.00;;;;;;;12.67;49.18;94586.75;5029023;28;20451;-58
2022/04/20 11:22:24;;;;;;;11.77;10.10;;;;;;;12.99;48.36;94590.41;5029452;28;20534;-55
2022/04/20 11:25:09;;;;;;;11.90;10.63;;;;;;;13.03;49.02;94596.72;5028723;28;20487;-57
2022/04/20 11:27:37;;;;;;;14.40;11.17;;;;;;;13.02;48.75;94594.34;5030884;28;20452;-60
2022/04/20 11:30:05;;;;;;;12.03;10.77;;;;;;;12.58;48.92;94594.44;5030874;28;20451;-55
2022/04/20 11:32:32;;;;;;;16.07;11.53;;;;;;;12.64;48.93;94597.81;5030871;28;20440;-56
2022/04/20 11:35:14;;;;;;;12.57;11.17;;;;;;;12.58;48.55;94594.44;5028946;28;20873;-58
2022/04/20 11:37:56;;;;;;;11.80;10.53;;;;;;;12.78;49.14;94580.34;5030394;28;20950;-58
2022/04/20 11:40:23;;;;;;;13.00;11.33;;;;;;;12.83;48.58;94581.09;5029938;28;20444;-61
2022/04/20 11:43:09;;;;;;;13.43;12.03;;;;;;;12.68;48.85;94594.34;5030585;28;20937;-56
2022/04/20 11:45:56;;;;;;;15.33;13.67;;;;;;;13.03;48.90;94591.47;5029901;28;20440;-57
2022/04/20 11:48:24;;;;;;;15.43;12.37;;;;;;;13.04;48.51;94592.25;5030342;28;21072;-56
2022/04/20 11:50:58;;;;;;;14.17;12.57;;;;;;;13.01;49.03;94584.91;5030037;28;20471;-55
2022/04/20 11:53:33;;;;;;;12.98;11.48;;;;;;;13.19;48.51;94589.50;5030234;28;20451;-59
2022/04/20 11:56:40;;;;;;;13.83;12.27;;;;;;;13.06;48.78;94590.91;5028562;28;20215;-53
2022/04/20 11:59:08;;;;;;;13.53;12.00;;;;;;;13.00;49.26;94592.00;5029702;28;20455;-57
2022/04/20 12:01:39;;;;;;;12.00;10.80;;;;;;;13.31;48.46;94591.72;5029016;28;20962;-57
2022/04/20 12:04:13;;;;;;;12.40;11.00;;;;;;;13.04;48.72;94598.31;5030036;28;20490;-59
2022/04/20 12:06:49;;;;;;;10.83;9.50;;;;;;;12.52;49.45;94603.41;5029985;28;20501;-59
2022/04/20 12:09:20;;;;;;;11.30;9.60;;;;;;;13.05;48.40;94591.97;5029671;28;20457;-61
2022/04/20 12:11:47;;;;;;;10.67;9.57;;;;;;;12.97;48.23;94602.28;5029525;28;20527;-57
2022/04/20 12:14:14;;;;;;;8.97;8.17;;;;;;;13.02;46.94;94589.91;5029752;28;20444;-57
2022/04/20 12:16:41;;;;;;;8.80;7.90;;;;;;;13.03;47.29;94595.94;5028324;28;20455;-59
2022/04/20 12:19:12;;;;;;;8.50;7.70;;;;;;;12.78;47.87;94604.81;5029150;28;20452;-54
2022/04/20 12:21:47;;;;;;;9.23;8.30;;;;;;;12.35;48.73;94615.38;5029764;28;20975;-50